Time;durP1;ratioP1;P1;durP2;ratioP2;P2;SDS_P1;SDS_P2;PMS_P1;PMS_P2;Temp;Humidity;BMP_temperature;BMP_pressure;BME280_temperature;BME280_humidity;BME280_pressure;Samples;Min_cycle;Max_cycle;Signal;HPM_P1;HPM_P2
2023/12/20 00:00:38;;;;;;;3.53;2.17;;;7.20;98.00;;;;;;4992968;28;20854;-69
2023/12/20 00:03:07;;;;;;;4.10;2.40;;;7.20;98.00;;;;;;4992728;28;20490;-69
2023/12/20 00:05:38;;;;;;;3.60;2.27;;;7.20;98.00;;;;;;4992804;28;20457;-70
2023/12/20 00:08:06;;;;;;;3.80;2.10;;;7.10;98.00;;;;;;4992726;28;20830;-71
2023/12/20 00:10:48;;;;;;;3.93;2.00;;;7.10;98.00;;;;;;4975458;28;21033;-70
2023/12/20 00:13:15;;;;;;;3.03;1.70;;;7.10;98.00;;;;;;5179032;23;21041;-70
2023/12/20 00:15:42;;;;;;;2.57;1.90;;;7.10;98.00;;;;;;4992749;28;20461;-70
2023/12/20 00:18:10;;;;;;;2.73;2.00;;;7.10;98.00;;;;;;4992705;28;20450;-70
2023/12/20 00:20:40;;;;;;;3.53;1.80;;;7.10;98.00;;;;;;4992741;28;20531;-70
2023/12/20 00:23:08;;;;;;;3.47;2.20;;;7.10;98.00;;;;;;4992223;28;20489;-71
2023/12/20 00:25:35;;;;;;;1.97;1.70;;;7.20;98.00;;;;;;4992745;28;20491;-69
2023/12/20 00:28:06;;;;;;;3.63;1.97;;;7.20;98.00;;;;;;4992583;28;20525;-69
2023/12/20 00:30:33;;;;;;;3.90;1.73;;;7.20;98.00;;;;;;4992528;28;20540;-69
2023/12/20 00:33:00;;;;;;;3.40;1.90;;;7.20;98.00;;;;;;4992181;28;20583;-69
2023/12/20 00:35:30;;;;;;;3.77;2.10;;;7.20;98.00;;;;;;4992409;28;20453;-69
2023/12/20 00:38:04;;;;;;;2.40;1.80;;;7.20;98.00;;;;;;4992715;28;20515;-70
2023/12/20 00:40:35;;;;;;;2.00;1.60;;;7.20;98.00;;;;;;4992931;28;20463;-70
2023/12/20 00:43:05;;;;;;;2.50;1.87;;;7.20;98.00;;;;;;4992465;28;20483;-71
2023/12/20 00:45:32;;;;;;;2.23;1.67;;;7.20;98.00;;;;;;4992662;28;20454;-70
2023/12/20 00:48:00;;;;;;;2.93;1.97;;;7.20;98.00;;;;;;4992454;28;20459;-69
2023/12/20 00:50:27;;;;;;;4.90;2.23;;;7.30;98.00;;;;;;4992268;28;21200;-69
2023/12/20 00:52:56;;;;;;;2.90;2.00;;;7.30;98.00;;;;;;4992084;28;20534;-74
2023/12/20 00:55:25;;;;;;;2.33;2.03;;;7.20;98.00;;;;;;4992271;28;20459;-69
2023/12/20 00:57:53;;;;;;;3.20;2.10;;;7.30;98.00;;;;;;4992025;28;20976;-71
2023/12/20 01:00:24;;;;;;;3.43;2.30;;;7.10;98.00;;;;;;4991051;28;20546;-71
2023/12/20 01:02:51;;;;;;;2.83;1.80;;;7.00;98.00;;;;;;4992140;28;21082;-69
2023/12/20 01:05:23;;;;;;;4.80;2.20;;;7.00;98.00;;;;;;4991930;28;20458;-70
2023/12/20 01:07:51;;;;;;;3.33;2.27;;;7.00;98.00;;;;;;5177794;23;20555;-69
2023/12/20 01:10:46;;;;;;;2.67;2.00;;;7.00;98.00;;;;;;4992047;28;20453;-70
2023/12/20 01:13:19;;;;;;;2.90;2.00;;;6.90;98.00;;;;;;5169548;23;20490;-71
2023/12/20 01:15:47;;;;;;;4.53;2.20;;;6.80;98.00;;;;;;4992067;28;20462;-68
2023/12/20 01:18:14;;;;;;;3.80;2.10;;;6.70;98.00;;;;;;4992267;28;20455;-70
2023/12/20 01:20:47;;;;;;;2.20;1.70;;;6.80;98.00;;;;;;4991931;28;20446;-69
2023/12/20 01:25:44;;;;;;;4.20;2.47;;;7.10;98.00;;;;;;4990068;28;20868;-70
2023/12/20 01:28:11;;;;;;;3.27;2.10;;;7.00;98.00;;;;;;4992231;28;20556;-71
2023/12/20 01:30:39;;;;;;;2.87;1.83;;;7.00;98.00;;;;;;4992165;28;20449;-69
2023/12/20 01:33:11;;;;;;;4.00;2.13;;;7.00;98.00;;;;;;4991974;28;20504;-69
2023/12/20 01:35:40;;;;;;;2.33;1.70;;;7.10;98.00;;;;;;4992146;28;20952;-70
2023/12/20 01:38:07;;;;;;;3.17;2.10;;;7.10;98.00;;;;;;4991905;28;20467;-70
2023/12/20 01:40:34;;;;;;;1.80;1.70;;;7.10;98.00;;;;;;4991874;28;20463;-70
2023/12/20 01:43:07;;;;;;;2.80;1.70;;;7.10;98.00;;;;;;4990449;28;20980;-69
2023/12/20 01:45:34;;;;;;;4.30;1.83;;;7.10;98.00;;;;;;4994507;28;20451;-71
2023/12/20 01:48:03;;;;;;;4.60;2.10;;;7.10;98.00;;;;;;4994789;28;20453;-69
2023/12/20 01:50:31;;;;;;;3.30;2.20;;;7.10;98.00;;;;;;4994927;28;20458;-69
2023/12/20 01:53:00;;;;;;;3.93;2.00;;;7.10;98.00;;;;;;4994954;28;20489;-69
2023/12/20 01:55:30;;;;;;;3.90;2.03;;;7.00;98.00;;;;;;4994344;28;20945;-69
2023/12/20 01:57:58;;;;;;;2.53;1.70;;;7.00;98.00;;;;;;4993814;28;20870;-69
2023/12/20 02:00:28;;;;;;;2.83;1.90;;;6.90;98.00;;;;;;4994818;28;20814;-69
2023/12/20 02:02:57;;;;;;;2.50;1.60;;;6.80;98.00;;;;;;4994403;28;20485;-70
2023/12/20 02:05:25;;;;;;;2.37;2.03;;;6.80;98.00;;;;;;4994361;28;20460;-69
2023/12/20 02:07:52;;;;;;;2.87;1.90;;;6.90;98.00;;;;;;4994481;28;20466;-68
2023/12/20 02:10:19;;;;;;;2.20;1.80;;;7.00;98.00;;;;;;4994384;28;20453;-69
2023/12/20 02:12:46;;;;;;;2.77;2.00;;;7.10;98.00;;;;;;4994347;28;20459;-68
2023/12/20 02:15:15;;;;;;;2.33;1.90;;;7.10;98.00;;;;;;4994498;28;20458;-69
2023/12/20 02:17:44;;;;;;;3.63;2.30;;;7.00;98.00;;;;;;4993168;28;21004;-68
2023/12/20 02:20:11;;;;;;;2.60;1.83;;;7.00;98.00;;;;;;4994189;28;20493;-68
2023/12/20 02:22:40;;;;;;;2.33;1.73;;;7.00;98.00;;;;;;4994238;28;20453;-69
2023/12/20 02:25:07;;;;;;;3.00;2.03;;;6.90;98.00;;;;;;4993890;28;20480;-69
2023/12/20 02:27:36;;;;;;;3.30;1.90;;;6.90;98.00;;;;;;4992829;28;20815;-68
2023/12/20 02:30:04;;;;;;;2.80;1.90;;;6.90;98.00;;;;;;4993968;28;20477;-69
2023/12/20 02:32:31;;;;;;;1.83;1.50;;;6.90;98.00;;;;;;4993963;28;20465;-70
2023/12/20 02:34:59;;;;;;;3.50;1.83;;;6.80;98.00;;;;;;4993830;28;20459;-69
2023/12/20 02:37:26;;;;;;;2.17;1.80;;;6.90;98.00;;;;;;4993723;28;20462;-69
2023/12/20 02:39:55;;;;;;;2.33;1.73;;;7.00;98.00;;;;;;4993802;28;20463;-69
2023/12/20 02:42:22;;;;;;;3.00;2.03;;;7.00;98.00;;;;;;4993806;28;21063;-69
2023/12/20 02:44:49;;;;;;;3.10;1.80;;;6.80;98.00;;;;;;4993791;28;20501;-69
2023/12/20 02:47:16;;;;;;;2.60;1.90;;;6.90;98.00;;;;;;4993635;28;20451;-70
2023/12/20 02:49:43;;;;;;;3.20;2.00;;;6.90;98.00;;;;;;4992580;28;20460;-69
2023/12/20 02:52:11;;;;;;;2.83;1.87;;;7.00;98.00;;;;;;4993659;28;20477;-69
2023/12/20 02:54:38;;;;;;;2.70;1.90;;;7.00;98.00;;;;;;4991998;28;20483;-70
2023/12/20 02:57:07;;;;;;;3.53;2.20;;;7.00;98.00;;;;;;4992549;28;20462;-69
2023/12/20 02:59:34;;;;;;;2.30;1.80;;;7.10;98.00;;;;;;4993507;28;20531;-69
2023/12/20 03:02:01;;;;;;;2.63;1.80;;;7.10;98.00;;;;;;5008576;28;20460;-68
2023/12/20 03:04:29;;;;;;;3.80;1.90;;;7.10;98.00;;;;;;4993357;28;20543;-69
2023/12/20 03:06:56;;;;;;;3.10;2.30;;;7.10;98.00;;;;;;4992303;28;20453;-69
2023/12/20 03:09:22;;;;;;;2.50;1.80;;;7.10;98.00;;;;;;4993311;28;20509;-69
2023/12/20 03:11:50;;;;;;;3.63;2.20;;;7.00;98.00;;;;;;4993224;28;20458;-69
2023/12/20 03:14:18;;;;;;;3.60;2.60;;;7.00;98.00;;;;;;4993521;28;20458;-69
2023/12/20 03:16:48;;;;;;;2.80;1.90;;;6.80;98.00;;;;;;4993131;28;20508;-70
2023/12/20 03:19:16;;;;;;;2.80;2.13;;;6.70;98.00;;;;;;4993522;28;20518;-68
2023/12/20 03:21:43;;;;;;;4.37;2.47;;;6.80;98.00;;;;;;4992339;28;20460;-69
2023/12/20 03:24:10;;;;;;;3.10;1.90;;;6.80;98.00;;;;;;4993188;28;20505;-68
2023/12/20 03:26:38;;;;;;;2.67;2.10;;;6.70;98.00;;;;;;4993239;28;20461;-69
2023/12/20 03:29:05;;;;;;;4.10;2.37;;;6.70;98.00;;;;;;4993064;28;20454;-69
2023/12/20 03:31:34;;;;;;;4.90;2.50;;;6.70;98.00;;;;;;4992905;28;20973;-68
2023/12/20 03:34:01;;;;;;;3.50;2.60;;;6.60;98.00;;;;;;4991857;28;20457;-69
2023/12/20 03:36:28;;;;;;;3.87;2.40;;;6.50;98.00;;;;;;4992988;28;20467;-69
2023/12/20 03:38:55;;;;;;;3.23;2.20;;;6.50;98.00;;;;;;5193700;23;20461;-67
2023/12/20 03:41:22;;;;;;;3.90;2.57;;;6.50;98.00;;;;;;4992765;28;20532;-68
2023/12/20 03:43:49;;;;;;;4.23;2.53;;;6.60;98.00;;;;;;4992582;28;20491;-67
2023/12/20 03:46:16;;;;;;;3.77;2.30;;;6.70;98.00;;;;;;4992856;28;20949;-68
2023/12/20 03:48:46;;;;;;;3.10;2.13;;;6.70;98.00;;;;;;4992731;28;20450;-68
2023/12/20 03:51:13;;;;;;;3.70;2.20;;;6.80;98.00;;;;;;4992509;28;20469;-68
2023/12/20 03:53:40;;;;;;;3.47;2.50;;;6.70;98.00;;;;;;4992480;28;20461;-68
2023/12/20 03:56:08;;;;;;;3.63;2.37;;;6.80;98.00;;;;;;4992369;28;20473;-68
2023/12/20 03:58:35;;;;;;;3.50;2.47;;;6.80;98.00;;;;;;4992452;28;20507;-67
2023/12/20 04:01:02;;;;;;;3.90;2.40;;;6.60;98.00;;;;;;4992471;28;20452;-67
2023/12/20 04:03:29;;;;;;;3.60;2.10;;;6.70;98.00;;;;;;4992445;28;20543;-68
2023/12/20 04:05:57;;;;;;;4.10;2.47;;;6.80;98.00;;;;;;4992311;28;20459;-68
2023/12/20 04:08:24;;;;;;;4.30;2.60;;;6.90;98.00;;;;;;4991960;28;20461;-69
2023/12/20 04:10:51;;;;;;;3.30;2.43;;;7.00;98.00;;;;;;4992172;28;20458;-67
2023/12/20 04:13:18;;;;;;;3.20;2.30;;;6.90;98.00;;;;;;4991451;28;20872;-68
2023/12/20 04:15:45;;;;;;;3.10;2.10;;;6.80;98.00;;;;;;4991626;28;20453;-68
2023/12/20 04:18:14;;;;;;;3.33;2.27;;;6.80;98.00;;;;;;4992503;28;20483;-68
2023/12/20 04:20:41;;;;;;;7.13;2.70;;;6.70;98.00;;;;;;4992475;28;20824;-68
2023/12/20 04:23:13;;;;;;;2.67;2.20;;;6.60;98.00;;;;;;4992467;28;20467;-68
2023/12/20 04:25:40;;;;;;;2.83;2.00;;;6.60;98.00;;;;;;4992692;28;20489;-67
2023/12/20 04:28:07;;;;;;;3.00;1.80;;;6.60;98.00;;;;;;4992645;28;20461;-68
2023/12/20 04:30:35;;;;;;;2.27;1.77;;;6.60;98.00;;;;;;4992591;28;20456;-68
2023/12/20 04:33:02;;;;;;;2.43;1.70;;;6.70;98.00;;;;;;4992234;28;20469;-68
2023/12/20 04:35:29;;;;;;;3.43;1.60;;;6.70;98.00;;;;;;4991910;28;20939;-67
2023/12/20 04:37:56;;;;;;;2.17;1.50;;;6.70;98.00;;;;;;4974872;28;20454;-68
2023/12/20 04:40:24;;;;;;;2.30;1.70;;;6.70;98.00;;;;;;4974560;28;20526;-68
2023/12/20 04:42:51;;;;;;;1.60;1.50;;;6.60;98.00;;;;;;4991894;28;20460;-68
2023/12/20 04:45:23;;;;;;;1.60;1.30;;;6.60;98.00;;;;;;4991975;28;20486;-67
2023/12/20 04:47:50;;;;;;;1.60;1.30;;;6.60;98.00;;;;;;4991836;28;20466;-68
2023/12/20 04:50:17;;;;;;;1.90;1.43;;;6.60;98.00;;;;;;4991678;28;20945;-68
2023/12/20 04:52:44;;;;;;;1.97;1.63;;;6.60;98.00;;;;;;4992124;28;20467;-68
2023/12/20 04:55:11;;;;;;;1.60;1.50;;;6.60;98.00;;;;;;4991838;28;20966;-68
2023/12/20 04:57:40;;;;;;;1.60;1.40;;;6.60;98.00;;;;;;4992290;28;20470;-67
2023/12/20 05:00:09;;;;;;;2.03;1.80;;;6.70;98.00;;;;;;4974742;28;20456;-68
2023/12/20 05:02:36;;;;;;;2.53;1.70;;;6.70;98.00;;;;;;4991996;28;20538;-67
2023/12/20 05:05:03;;;;;;;1.90;1.77;;;6.70;98.00;;;;;;4991606;28;20487;-68
2023/12/20 05:07:30;;;;;;;1.80;1.60;;;6.80;98.00;;;;;;4991682;28;20543;-69
2023/12/20 05:09:57;;;;;;;2.57;1.80;;;6.80;98.00;;;;;;4991604;28;20452;-68
2023/12/20 05:12:24;;;;;;;3.10;1.80;;;6.70;98.00;;;;;;4992036;28;20454;-68
2023/12/20 05:14:53;;;;;;;3.17;1.80;;;6.60;98.00;;;;;;4991599;28;20463;-69
2023/12/20 05:17:21;;;;;;;3.50;1.87;;;6.60;98.00;;;;;;4991427;28;20458;-67
2023/12/20 05:19:48;;;;;;;2.87;1.90;;;6.50;98.00;;;;;;4993509;28;20449;-69
2023/12/20 05:22:15;;;;;;;3.23;1.90;;;6.50;98.00;;;;;;4995344;28;20952;-68
2023/12/20 05:24:42;;;;;;;3.20;2.10;;;6.50;98.00;;;;;;4995228;28;20484;-69
2023/12/20 05:27:09;;;;;;;2.40;1.73;;;6.40;98.00;;;;;;4995309;28;20467;-67
2023/12/20 05:29:36;;;;;;;1.83;1.50;;;6.30;98.00;;;;;;4995367;28;20480;-68
2023/12/20 05:32:05;;;;;;;2.13;1.80;;;6.30;98.00;;;;;;4995525;28;20642;-68
2023/12/20 05:34:33;;;;;;;3.47;1.60;;;6.30;98.00;;;;;;4995221;28;20453;-68
2023/12/20 05:37:01;;;;;;;2.33;1.70;;;6.20;98.00;;;;;;4995050;28;20450;-67
2023/12/20 05:39:28;;;;;;;2.17;1.67;;;6.20;98.00;;;;;;4994631;28;20841;-68
2023/12/20 05:41:56;;;;;;;2.40;1.53;;;6.20;98.00;;;;;;4995052;28;20454;-68
2023/12/20 05:44:23;;;;;;;2.77;1.60;;;6.20;98.00;;;;;;4993487;28;20486;-68
2023/12/20 05:46:50;;;;;;;1.40;1.30;;;6.20;98.00;;;;;;4995034;28;20477;-69
2023/12/20 05:49:18;;;;;;;1.50;1.30;;;6.20;98.00;;;;;;4994770;28;20457;-67
2023/12/20 05:51:45;;;;;;;1.30;1.20;;;6.40;98.00;;;;;;4994858;28;20456;-68
2023/12/20 05:54:13;;;;;;;1.83;1.50;;;6.40;98.00;;;;;;4994793;28;20960;-68
2023/12/20 05:56:40;;;;;;;1.27;1.10;;;6.40;98.00;;;;;;4994793;28;20451;-67
2023/12/20 05:59:07;;;;;;;1.20;1.07;;;6.40;98.00;;;;;;4994757;28;20500;-68
2023/12/20 06:01:35;;;;;;;1.20;1.10;;;6.50;98.00;;;;;;4994703;28;20831;-68
2023/12/20 06:04:03;;;;;;;1.20;1.10;;;6.40;98.00;;;;;;4994594;28;20454;-68
2023/12/20 06:06:32;;;;;;;1.37;1.10;;;6.50;98.00;;;;;;4993974;28;20971;-69
2023/12/20 06:08:59;;;;;;;1.23;1.10;;;6.50;98.00;;;;;;4994689;28;20447;-68
2023/12/20 06:11:27;;;;;;;1.30;1.10;;;6.50;98.00;;;;;;4994670;28;20452;-68
2023/12/20 06:13:54;;;;;;;1.67;1.20;;;6.50;98.00;;;;;;4994439;28;20452;-68
2023/12/20 06:16:21;;;;;;;1.20;1.10;;;6.50;98.00;;;;;;4994334;28;20537;-68
2023/12/20 06:18:48;;;;;;;1.53;1.10;;;6.50;98.00;;;;;;4994304;28;20453;-68
2023/12/20 06:21:16;;;;;;;1.20;1.20;;;6.50;98.00;;;;;;4994206;28;20835;-68
2023/12/20 06:23:44;;;;;;;1.20;1.07;;;6.50;98.00;;;;;;4994233;28;20451;-68
2023/12/20 06:26:11;;;;;;;1.30;1.20;;;6.50;98.00;;;;;;4993991;28;20490;-68
2023/12/20 06:28:38;;;;;;;2.13;1.40;;;6.50;98.00;;;;;;4994173;28;20457;-68
2023/12/20 06:31:05;;;;;;;1.50;1.20;;;6.60;98.00;;;;;;4994117;28;20463;-68
2023/12/20 06:33:33;;;;;;;2.93;1.90;;;6.60;98.00;;;;;;4994205;28;20458;-69
2023/12/20 06:36:00;;;;;;;4.53;2.17;;;6.70;98.00;;;;;;4993574;28;21045;-68
2023/12/20 06:38:27;;;;;;;2.33;1.60;;;6.70;98.00;;;;;;4993430;28;20516;-68
2023/12/20 06:40:57;;;;;;;2.00;1.53;;;6.70;98.00;;;;;;4994070;28;20467;-69
2023/12/20 06:43:24;;;;;;;1.60;1.50;;;6.70;98.00;;;;;;4994303;28;20857;-68
2023/12/20 06:45:51;;;;;;;2.17;1.60;;;6.60;98.00;;;;;;4976448;28;20501;-68
2023/12/20 06:48:18;;;;;;;2.83;1.43;;;6.60;98.00;;;;;;4994097;28;20466;-68
2023/12/20 06:50:45;;;;;;;1.80;1.40;;;6.70;98.00;;;;;;4994070;28;20529;-68
2023/12/20 06:53:13;;;;;;;2.43;1.60;;;6.70;98.00;;;;;;4993917;28;20493;-68
2023/12/20 06:55:40;;;;;;;1.40;1.40;;;6.70;98.00;;;;;;4993953;28;20463;-67
2023/12/20 06:58:08;;;;;;;1.40;1.20;;;6.60;98.00;;;;;;4993819;28;20454;-68
2023/12/20 07:00:35;;;;;;;1.47;1.43;;;6.60;98.00;;;;;;4993747;28;20463;-67
2023/12/20 07:03:03;;;;;;;1.70;1.40;;;6.60;98.00;;;;;;4993466;28;20458;-62
2023/12/20 07:05:33;;;;;;;2.53;1.90;;;6.70;98.00;;;;;;4993348;28;20491;-62
2023/12/20 07:08:00;;;;;;;1.77;1.63;;;6.80;98.00;;;;;;4993408;28;20818;-63
2023/12/20 07:10:27;;;;;;;2.67;1.87;;;6.80;98.00;;;;;;4993387;28;20870;-62
2023/12/20 07:12:55;;;;;;;2.37;1.73;;;6.70;98.00;;;;;;4976229;28;20459;-63
2023/12/20 07:15:23;;;;;;;4.23;2.30;;;6.60;98.00;;;;;;4975878;28;20947;-63
2023/12/20 07:17:50;;;;;;;3.60;2.50;;;6.70;98.00;;;;;;4993359;28;20460;-63
2023/12/20 07:20:17;;;;;;;7.63;2.63;;;6.80;98.00;;;;;;4976686;28;20492;-63
2023/12/20 07:22:45;;;;;;;3.57;2.60;;;6.90;98.00;;;;;;4993924;28;20453;-63
2023/12/20 07:25:13;;;;;;;2.63;2.10;;;6.90;98.00;;;;;;4993864;28;20587;-63
2023/12/20 07:27:40;;;;;;;8.03;2.20;;;6.90;98.00;;;;;;4993527;28;20459;-63
2023/12/20 07:30:08;;;;;;;5.60;2.27;;;6.90;98.00;;;;;;4993577;28;20458;-63
2023/12/20 07:32:36;;;;;;;3.57;2.20;;;6.80;98.00;;;;;;4993666;28;20457;-63
2023/12/20 07:35:05;;;;;;;3.00;2.00;;;6.80;98.00;;;;;;4993679;28;20458;-62
2023/12/20 07:37:32;;;;;;;2.97;2.00;;;6.90;98.00;;;;;;4976297;28;20485;-63
2023/12/20 07:39:59;;;;;;;2.93;2.00;;;7.00;98.00;;;;;;4993148;28;20473;-63
2023/12/20 07:42:26;;;;;;;2.90;1.93;;;6.90;98.00;;;;;;4992983;28;20505;-63
2023/12/20 07:44:53;;;;;;;4.50;2.37;;;6.90;98.00;;;;;;4993451;28;20483;-63
2023/12/20 07:47:21;;;;;;;3.33;2.20;;;6.90;98.00;;;;;;4993230;28;20469;-63
2023/12/20 07:49:51;;;;;;;4.40;2.40;;;6.90;98.00;;;;;;4993380;28;20446;-63
2023/12/20 07:52:18;;;;;;;3.90;2.63;;;6.80;98.00;;;;;;4993247;28;21121;-63
2023/12/20 07:54:45;;;;;;;4.03;2.67;;;6.70;98.00;;;;;;4993369;28;20475;-63
2023/12/20 07:57:13;;;;;;;5.80;2.60;;;6.70;98.00;;;;;;4993174;28;20854;-63
2023/12/20 07:59:40;;;;;;;5.93;2.97;;;6.70;98.00;;;;;;4993224;28;20458;-63
2023/12/20 08:02:07;;;;;;;5.90;3.33;;;6.70;98.00;;;;;;4993379;28;20457;-63
2023/12/20 08:04:34;;;;;;;5.23;3.07;;;6.80;98.00;;;;;;4993081;28;20489;-62
2023/12/20 08:07:03;;;;;;;4.70;2.80;;;6.80;98.00;;;;;;4993131;28;21476;-63
2023/12/20 08:09:31;;;;;;;3.53;2.40;;;6.80;98.00;;;;;;4993278;28;20490;-63
2023/12/20 08:11:59;;;;;;;3.90;2.63;;;6.70;98.00;;;;;;4993124;28;20461;-63
2023/12/20 08:14:26;;;;;;;3.43;2.20;;;6.60;98.00;;;;;;4993158;28;20543;-63
2023/12/20 08:16:53;;;;;;;3.50;2.30;;;6.60;98.00;;;;;;4993018;28;20961;-63
2023/12/20 08:19:37;;;;;;;5.20;2.30;;;6.60;98.00;;;;;;4993146;28;20455;-63
2023/12/20 08:22:05;;;;;;;4.13;2.30;;;6.60;98.00;;;;;;4993101;28;20458;-63
2023/12/20 08:24:32;;;;;;;5.17;2.70;;;6.50;98.00;;;;;;4993170;28;20452;-63
2023/12/20 08:26:59;;;;;;;3.60;2.50;;;6.60;98.00;;;;;;4975642;28;20469;-63
2023/12/20 08:29:26;;;;;;;3.20;2.27;;;6.70;98.00;;;;;;4992981;28;20795;-63
2023/12/20 08:31:54;;;;;;;5.13;2.73;;;6.70;98.00;;;;;;4992602;28;20468;-63
2023/12/20 08:34:21;;;;;;;6.10;2.90;;;6.60;98.00;;;;;;4992145;28;20549;-63
2023/12/20 08:36:48;;;;;;;5.27;2.63;;;6.60;98.00;;;;;;4992574;28;20470;-63
2023/12/20 08:39:17;;;;;;;5.10;2.43;;;6.50;98.00;;;;;;4991782;28;20464;-63
2023/12/20 08:41:45;;;;;;;4.20;2.60;;;6.50;98.00;;;;;;4992571;28;20470;-62
2023/12/20 08:44:13;;;;;;;5.60;2.47;;;6.50;98.00;;;;;;4978322;28;20854;-62
2023/12/20 08:46:40;;;;;;;6.43;2.80;;;6.50;98.00;;;;;;4972497;28;20622;-63
2023/12/20 08:49:09;;;;;;;7.33;2.87;;;6.50;98.00;;;;;;4971696;28;20457;-63
2023/12/20 08:51:39;;;;;;;3.50;2.30;;;6.50;98.00;;;;;;4959781;28;20545;-63
2023/12/20 08:54:08;;;;;;;5.70;3.00;;;6.40;98.00;;;;;;4978123;28;20843;-62
2023/12/20 08:56:37;;;;;;;4.87;2.70;;;6.40;98.00;;;;;;4959783;28;20456;-63
2023/12/20 08:59:04;;;;;;;5.10;2.60;;;6.40;98.00;;;;;;4977179;28;20512;-62
2023/12/20 09:01:31;;;;;;;4.87;2.77;;;6.40;98.00;;;;;;4976585;28;20510;-62
2023/12/20 09:03:58;;;;;;;4.07;2.60;;;6.20;98.00;;;;;;4976798;28;20480;-62
2023/12/20 09:06:25;;;;;;;4.83;2.30;;;6.20;98.00;;;;;;4943482;28;20893;-63
2023/12/20 09:08:53;;;;;;;5.87;2.97;;;6.20;98.00;;;;;;4976538;28;20546;-63
2023/12/20 09:11:20;;;;;;;4.40;2.87;;;6.20;98.00;;;;;;4976083;28;20732;-62
2023/12/20 09:13:48;;;;;;;6.53;3.03;;;6.20;98.00;;;;;;4961257;28;20459;-63
2023/12/20 09:16:17;;;;;;;4.33;2.87;;;6.20;98.00;;;;;;4994671;28;20460;-63
2023/12/20 09:18:44;;;;;;;5.30;2.83;;;6.30;98.00;;;;;;4996236;28;20461;-63
2023/12/20 09:21:11;;;;;;;4.10;2.60;;;6.30;98.00;;;;;;4996062;28;20516;-62
2023/12/20 09:23:39;;;;;;;6.50;2.80;;;6.30;98.00;;;;;;4996065;28;20466;-62
2023/12/20 09:26:06;;;;;;;8.60;3.00;;;6.30;98.00;;;;;;4995635;28;20552;-63
2023/12/20 09:28:36;;;;;;;4.60;2.70;;;6.30;98.00;;;;;;4995884;28;20467;-63
2023/12/20 09:31:06;;;;;;;4.10;2.53;;;6.30;98.00;;;;;;4995776;28;20829;-62
2023/12/20 09:33:33;;;;;;;6.53;3.10;;;6.30;98.00;;;;;;4995852;28;20825;-63
2023/12/20 09:36:02;;;;;;;3.53;2.17;;;6.40;98.00;;;;;;4995447;28;20830;-63
2023/12/20 09:38:30;;;;;;;3.57;2.33;;;6.40;98.00;;;;;;4995397;28;20522;-63
2023/12/20 09:40:57;;;;;;;4.50;2.57;;;6.30;98.00;;;;;;4995497;28;20464;-63
2023/12/20 09:43:28;;;;;;;5.40;2.50;;;6.40;98.00;;;;;;4995970;28;20455;-63
2023/12/20 09:46:00;;;;;;;4.47;2.20;;;6.30;98.00;;;;;;4997550;28;20491;-63
2023/12/20 09:48:29;;;;;;;3.13;2.07;;;6.30;98.00;;;;;;5014644;28;20842;-62
2023/12/20 09:50:56;;;;;;;7.53;2.17;;;6.30;98.00;;;;;;5014777;28;20847;-63
2023/12/20 09:53:29;;;;;;;5.83;2.40;;;6.40;98.00;;;;;;5014733;28;20459;-63
2023/12/20 09:56:00;;;;;;;6.60;2.70;;;6.30;98.00;;;;;;5014454;28;20452;-63
2023/12/20 09:58:27;;;;;;;3.13;1.90;;;6.30;98.00;;;;;;5014822;28;20869;-63
2023/12/20 10:00:56;;;;;;;3.50;2.20;;;6.40;98.00;;;;;;5015166;28;20805;-62
2023/12/20 10:03:26;;;;;;;3.23;2.10;;;6.40;98.00;;;;;;5014954;28;20457;-63
2023/12/20 10:05:57;;;;;;;4.10;2.60;;;6.40;98.00;;;;;;5014539;28;20494;-63
2023/12/20 10:08:25;;;;;;;3.60;2.10;;;6.50;98.00;;;;;;5014884;28;20542;-63
2023/12/20 10:10:53;;;;;;;4.20;2.50;;;6.50;98.00;;;;;;5014908;28;20485;-63
2023/12/20 10:13:20;;;;;;;3.80;2.27;;;6.60;98.00;;;;;;5014904;28;20543;-63
2023/12/20 10:15:47;;;;;;;4.00;2.00;;;6.50;98.00;;;;;;5014840;28;20460;-63
2023/12/20 10:18:14;;;;;;;4.27;2.40;;;6.60;98.00;;;;;;5014755;28;21022;-63
2023/12/20 10:20:43;;;;;;;3.90;2.10;;;6.60;98.00;;;;;;5015105;28;20811;-63
2023/12/20 10:23:13;;;;;;;3.77;1.93;;;6.60;98.00;;;;;;4996903;28;20455;-63
2023/12/20 10:25:42;;;;;;;3.70;1.90;;;6.70;98.00;;;;;;5014810;28;20982;-62
2023/12/20 10:28:11;;;;;;;6.13;2.30;;;6.70;98.00;;;;;;5013487;28;20520;-63
2023/12/20 10:30:38;;;;;;;6.87;1.97;;;6.80;98.00;;;;;;5014279;28;20800;-63
2023/12/20 10:33:07;;;;;;;4.50;1.93;;;6.80;98.00;;;;;;5014606;28;20446;-63
2023/12/20 10:35:34;;;;;;;3.73;1.80;;;6.80;98.00;;;;;;5014369;28;20550;-63
2023/12/20 10:38:05;;;;;;;2.80;1.80;;;6.70;98.00;;;;;;5014253;28;20486;-62
2023/12/20 10:40:36;;;;;;;2.57;1.80;;;6.80;98.00;;;;;;5014069;28;20472;-63
2023/12/20 10:43:04;;;;;;;3.47;1.93;;;6.90;98.00;;;;;;5014306;28;20503;-62
2023/12/20 10:45:32;;;;;;;3.97;2.50;;;6.90;98.00;;;;;;5014028;28;20487;-62
2023/12/20 10:48:00;;;;;;;5.23;1.83;;;6.90;98.00;;;;;;5014193;28;20541;-63
2023/12/20 10:50:29;;;;;;;2.53;1.90;;;6.90;98.00;;;;;;5013981;28;20499;-62
2023/12/20 10:52:57;;;;;;;7.93;2.07;;;7.00;98.00;;;;;;5013983;28;20495;-63
2023/12/20 10:55:24;;;;;;;3.10;2.00;;;7.20;98.00;;;;;;5013661;28;20459;-62
2023/12/20 10:57:55;;;;;;;4.43;1.90;;;7.30;98.00;;;;;;5013497;28;20464;-63
2023/12/20 11:00:34;;;;;;;3.83;1.60;;;7.30;98.00;;;;;;5013787;28;20456;-63
2023/12/20 11:03:02;;;;;;;4.37;1.97;;;7.40;98.00;;;;;;5013909;28;20523;-63
2023/12/20 11:05:37;;;;;;;3.53;2.10;;;7.40;98.00;;;;;;4997598;28;20525;-63
2023/12/20 11:08:11;;;;;;;6.30;1.90;;;7.60;98.00;;;;;;4976163;28;20464;-64
2023/12/20 11:10:47;;;;;;;6.10;1.80;;;7.50;98.00;;;;;;4993883;28;20542;-63
2023/12/20 11:13:22;;;;;;;3.43;1.60;;;7.50;98.00;;;;;;4993755;28;20461;-64
2023/12/20 11:15:49;;;;;;;3.87;1.77;;;7.60;98.00;;;;;;5002053;28;20865;-64
2023/12/20 11:18:17;;;;;;;4.20;1.80;;;7.60;98.00;;;;;;5012749;28;20456;-63
2023/12/20 11:20:44;;;;;;;2.07;1.60;;;7.60;98.00;;;;;;5013295;28;20548;-63
2023/12/20 11:23:11;;;;;;;8.63;1.80;;;7.70;98.00;;;;;;5013376;28;20484;-63
2023/12/20 11:25:49;;;;;;;7.50;1.83;;;7.80;98.00;;;;;;5013395;28;20454;-63
2023/12/20 11:28:25;;;;;;;3.33;1.90;;;7.70;98.00;;;;;;5013033;28;20490;-63
2023/12/20 11:30:53;;;;;;;5.33;1.83;;;7.60;98.00;;;;;;5013047;28;20466;-63
2023/12/20 11:33:23;;;;;;;5.17;1.80;;;7.40;98.00;;;;;;5013568;28;20472;-63
2023/12/20 11:35:50;;;;;;;2.00;1.60;;;7.30;98.00;;;;;;5013266;28;20503;-63
2023/12/20 11:38:18;;;;;;;4.00;1.90;;;7.20;98.00;;;;;;5013278;28;20455;-64
2023/12/20 11:40:45;;;;;;;3.30;1.90;;;7.20;98.00;;;;;;5012990;28;20952;-63
2023/12/20 11:43:12;;;;;;;3.03;1.60;;;7.20;98.00;;;;;;5012977;28;20863;-64
2023/12/20 11:45:51;;;;;;;3.90;2.20;;;7.20;98.00;;;;;;5012884;28;20453;-63
2023/12/20 11:48:19;;;;;;;3.17;1.87;;;7.10;98.00;;;;;;5012931;28;20543;-63
2023/12/20 11:50:46;;;;;;;4.57;2.03;;;7.10;98.00;;;;;;4995236;28;20458;-64
2023/12/20 11:53:13;;;;;;;6.67;2.23;;;6.90;98.00;;;;;;4983222;28;20455;-64
2023/12/20 11:55:40;;;;;;;4.50;1.93;;;6.90;98.00;;;;;;4981244;28;20844;-64
2023/12/20 11:58:09;;;;;;;3.03;1.93;;;7.00;98.00;;;;;;4973811;28;20460;-64
2023/12/20 12:00:36;;;;;;;2.33;1.70;;;6.90;98.00;;;;;;4973754;28;20462;-63
2023/12/20 12:03:06;;;;;;;5.50;2.10;;;6.90;98.00;;;;;;4973788;28;20447;-63
2023/12/20 12:05:33;;;;;;;6.70;2.00;;;6.90;98.00;;;;;;4973589;28;20450;-63
2023/12/20 12:08:00;;;;;;;2.87;1.80;;;6.80;98.00;;;;;;4954605;28;20524;-63
2023/12/20 12:10:27;;;;;;;1.70;1.60;;;6.90;98.00;;;;;;4973784;28;20460;-63
2023/12/20 12:12:56;;;;;;;3.53;1.80;;;6.70;98.00;;;;;;4973932;28;20457;-63
2023/12/20 12:15:23;;;;;;;4.63;1.80;;;6.70;98.00;;;;;;4973617;28;20460;-63
2023/12/20 12:17:59;;;;;;;3.90;1.70;;;6.60;98.00;;;;;;4973725;28;20462;-63
2023/12/20 12:20:28;;;;;;;5.70;2.00;;;6.70;98.00;;;;;;4973352;28;20488;-63
2023/12/20 12:23:02;;;;;;;4.40;1.93;;;6.70;98.00;;;;;;4973065;28;20455;-63
2023/12/20 12:25:31;;;;;;;2.73;1.70;;;6.60;98.00;;;;;;4973206;28;20466;-63
2023/12/20 12:27:59;;;;;;;9.03;1.97;;;6.60;98.00;;;;;;4973235;28;20525;-64
2023/12/20 12:30:26;;;;;;;6.50;2.17;;;6.60;98.00;;;;;;4972214;28;20457;-64
2023/12/20 12:32:54;;;;;;;2.73;2.00;;;6.50;98.00;;;;;;4972950;28;20458;-64
2023/12/20 12:35:21;;;;;;;2.87;1.60;;;6.50;98.00;;;;;;4973096;28;20463;-63
2023/12/20 12:37:49;;;;;;;3.10;1.80;;;6.50;98.00;;;;;;4972942;28;20474;-63
2023/12/20 12:40:18;;;;;;;3.30;1.83;;;6.60;98.00;;;;;;4972836;28;20497;-64
2023/12/20 12:42:46;;;;;;;8.33;2.00;;;6.60;98.00;;;;;;4972925;28;20461;-64
2023/12/20 12:45:14;;;;;;;2.80;1.80;;;6.80;98.00;;;;;;4972252;28;20549;-64
2023/12/20 12:47:41;;;;;;;3.63;1.67;;;7.40;98.00;;;;;;4972765;28;20485;-64
2023/12/20 12:50:09;;;;;;;2.43;1.70;;;8.00;98.00;;;;;;4972910;28;20562;-64
2023/12/20 12:52:37;;;;;;;4.13;1.90;;;8.80;98.00;;;;;;4955776;28;20538;-63
2023/12/20 12:55:06;;;;;;;3.30;2.03;;;9.00;98.00;;;;;;4955906;28;20458;-63
2023/12/20 12:57:34;;;;;;;2.50;1.70;;;8.60;98.00;;;;;;4972776;28;20522;-63
2023/12/20 13:00:01;;;;;;;3.83;1.60;;;8.30;98.00;;;;;;4972967;28;20452;-64
2023/12/20 13:02:28;;;;;;;1.47;1.30;;;8.10;98.00;;;;;;4972835;28;20799;-64
2023/12/20 13:04:55;;;;;;;3.80;1.97;;;8.00;98.00;;;;;;4972653;28;20463;-64